Temp: 9.0°C   Baro: 1013.2mb
  Wind: 4.0mph   Dir: SW (226°)
  Rain: 0.2mm (0.0mm/hr)
  Solar: 0W/m2  Hum: 90%
 
Cotswold Observatory Historical Data
Daily Summary for February 16, 2020 Units:  Metric    English   Both
Next Day »
Daily Weekly Monthly Yearly Custom
  High: Low: Average:
Temperature: 13.3 °C 4.4 °C 8.7 °C
Dew Point: 12.0 °C 2.3 °C 6.9 °C
Humidity: 95% 77% 88%
Wind Speed: 50.0km/h 0.0km/h 15.6km/h
Wind Gust: 72.4km/h - -
Wind direction- - West
Pressure: 1005.3 hPa 988.7 hPa -
Precipitation: 11.9 mm    
Historical Graphs
 
 
Tabular Data for February 16, 2020
Time Temperature Dew Point Pressure Wind direction Wind Speed Wind Gust Humidity Rainfall Rate (Hourly) solar
00:00 12.8 °C 11.5 °C 993.1 hPa West 22.7 km/h 41.8 km/h 92% 0.0 mm 0.00 W/m2
00:05 12.8 °C 11.5 °C 992.8 hPa West 11.1 km/h 35.4 km/h 92% 0.0 mm 0.00 W/m2
00:10 12.8 °C 11.5 °C 993.1 hPa West 28.8 km/h 43.4 km/h 92% 0.0 mm 0.00 W/m2
00:15 12.8 °C 11.5 °C 993.1 hPa SW 16.3 km/h 45.1 km/h 92% 0.0 mm 0.00 W/m2
00:20 12.9 °C 11.6 °C 993.1 hPa WSW 22.7 km/h 40.2 km/h 92% 0.0 mm 0.00 W/m2
00:25 12.9 °C 11.5 °C 992.8 hPa WSW 40.4 km/h 48.3 km/h 91% 0.0 mm 0.00 W/m2
00:30 12.9 °C 11.6 °C 993.1 hPa SW 17.7 km/h 38.6 km/h 92% 0.0 mm 0.00 W/m2
00:35 12.8 °C 11.5 °C 992.8 hPa SSW 7.9 km/h 49.9 km/h 92% 0.0 mm 0.00 W/m2
00:40 12.8 °C 11.5 °C 992.8 hPa WSW 28.8 km/h 41.8 km/h 92% 0.0 mm 0.00 W/m2
00:45 12.8 °C 11.5 °C 992.8 hPa WSW 20.9 km/h 56.3 km/h 92% 0.0 mm 0.00 W/m2
00:50 12.8 °C 11.5 °C 992.4 hPa West 25.9 km/h 53.1 km/h 92% 0.0 mm 0.00 W/m2
00:55 12.9 °C 11.6 °C 992.8 hPa WSW 17.7 km/h 53.1 km/h 92% 0.0 mm 0.00 W/m2
01:00 12.9 °C 11.6 °C 992.4 hPa West 13.0 km/h 43.4 km/h 92% 0.0 mm 0.00 W/m2
01:05 12.9 °C 11.5 °C 992.1 hPa West 19.5 km/h 45.1 km/h 91% 0.0 mm 0.00 W/m2
01:10 13.0 °C 11.6 °C 992.1 hPa WSW 30.6 km/h 51.5 km/h 91% 0.0 mm 0.00 W/m2
01:15 13.0 °C 11.6 °C 992.4 hPa West 27.4 km/h 62.8 km/h 91% 0.0 mm 0.00 W/m2
01:20 13.0 °C 11.6 °C 992.1 hPa West 7.9 km/h 29.0 km/h 91% 0.0 mm 0.00 W/m2
01:25 13.0 °C 11.6 °C 992.1 hPa SW 14.3 km/h 53.1 km/h 91% 0.0 mm 0.00 W/m2
01:30 13.0 °C 11.6 °C 991.8 hPa West 20.9 km/h 35.4 km/h 91% 0.0 mm 0.00 W/m2
01:35 12.9 °C 11.5 °C 991.4 hPa WSW 22.7 km/h 32.2 km/h 91% 0.0 mm 0.00 W/m2
01:40 12.9 °C 11.5 °C 991.4 hPa West 7.9 km/h 30.6 km/h 91% 0.0 mm 0.00 W/m2
01:45 13.0 °C 11.7 °C 991.4 hPa West 11.1 km/h 38.6 km/h 92% 0.0 mm 0.00 W/m2
01:50 13.0 °C 11.7 °C 991.4 hPa SSW 20.9 km/h 35.4 km/h 92% 0.0 mm 0.00 W/m2
01:55 12.9 °C 11.6 °C 991.4 hPa WSW 27.4 km/h 43.4 km/h 92% 0.0 mm 0.00 W/m2
02:00 12.9 °C 11.6 °C 991.1 hPa West 19.5 km/h 49.9 km/h 92% 0.0 mm 0.00 W/m2
02:05 13.1 °C 11.7 °C 991.4 hPa West 20.9 km/h 48.3 km/h 91% 0.0 mm 0.00 W/m2
02:10 13.1 °C 11.7 °C 991.1 hPa NW 20.9 km/h 41.8 km/h 91% 0.0 mm 0.00 W/m2
02:15 13.1 °C 11.7 °C 991.1 hPa West 17.7 km/h 45.1 km/h 91% 0.3 mm 0.00 W/m2
02:20 13.0 °C 11.6 °C 991.1 hPa WSW 24.1 km/h 35.4 km/h 91% 0.3 mm 0.00 W/m2
02:25 13.0 °C 11.7 °C 991.1 hPa SW 28.8 km/h 41.8 km/h 92% 0.5 mm 0.00 W/m2
02:30 13.1 °C 11.8 °C 990.7 hPa West 17.7 km/h 29.0 km/h 92% 0.5 mm 0.00 W/m2
02:35 13.1 °C 11.7 °C 990.4 hPa West 17.7 km/h 48.3 km/h 91% 0.5 mm 0.00 W/m2
02:40 13.1 °C 11.7 °C 990.7 hPa SW 28.8 km/h 72.4 km/h 91% 0.8 mm 0.00 W/m2
02:45 13.1 °C 11.7 °C 990.4 hPa SW 11.1 km/h 33.8 km/h 91% 0.8 mm 0.00 W/m2
02:50 13.1 °C 11.7 °C 990.4 hPa West 17.7 km/h 40.2 km/h 91% 0.8 mm 0.00 W/m2
02:55 13.1 °C 11.7 °C 990.4 hPa WSW 24.1 km/h 56.3 km/h 91% 0.8 mm 0.00 W/m2
03:00 13.1 °C 11.7 °C 989.7 hPa SW 50.0 km/h 49.9 km/h 91% 0.8 mm 0.00 W/m2
03:05 13.1 °C 11.7 °C 989.7 hPa SSW 16.3 km/h 37.0 km/h 91% 0.8 mm 0.00 W/m2
03:10 13.1 °C 11.8 °C 989.4 hPa SSW 22.7 km/h 56.3 km/h 92% 0.8 mm 0.00 W/m2
03:15 13.1 °C 11.7 °C 989.7 hPa West 14.3 km/h 35.4 km/h 91% 0.5 mm 0.00 W/m2
03:20 13.1 °C 11.8 °C 989.7 hPa WSW 19.5 km/h 40.2 km/h 92% 0.5 mm 0.00 W/m2
03:25 13.2 °C 11.9 °C 989.7 hPa SW 17.7 km/h 27.4 km/h 92% 0.5 mm 0.00 W/m2
03:30 13.2 °C 11.9 °C 989.7 hPa SSW 9.7 km/h 56.3 km/h 92% 0.5 mm 0.00 W/m2
03:35 13.2 °C 11.8 °C 989.7 hPa WNW 20.9 km/h 37.0 km/h 91% 0.5 mm 0.00 W/m2
03:40 13.2 °C 11.9 °C 989.7 hPa WNW 27.4 km/h 33.8 km/h 92% 0.3 mm 0.00 W/m2
03:45 13.2 °C 11.9 °C 989.4 hPa WNW 37.0 km/h 43.4 km/h 92% 0.3 mm 0.00 W/m2
03:50 13.2 °C 11.9 °C 989.4 hPa WSW 33.8 km/h 33.8 km/h 92% 0.3 mm 0.00 W/m2
03:55 13.3 °C 11.9 °C 989.7 hPa West 14.3 km/h 56.3 km/h 91% 0.3 mm 0.00 W/m2
04:00 13.3 °C 11.9 °C 989.4 hPa WNW 32.0 km/h 41.8 km/h 91% 0.3 mm 0.00 W/m2
04:05 13.3 °C 11.9 °C 989.4 hPa West 16.3 km/h 40.2 km/h 91% 0.3 mm 0.00 W/m2
04:10 13.3 °C 11.9 °C 989.1 hPa WSW 13.0 km/h 48.3 km/h 91% 0.3 mm 0.00 W/m2
04:15 13.3 °C 12.0 °C 989.1 hPa West 13.0 km/h 33.8 km/h 92% 0.3 mm 0.00 W/m2
04:20 13.2 °C 11.9 °C 989.1 hPa WNW 25.9 km/h 33.8 km/h 92% 0.3 mm 0.00 W/m2
04:25 13.2 °C 11.9 °C 989.1 hPa WSW 37.0 km/h 46.7 km/h 92% 0.3 mm 0.00 W/m2
04:30 13.2 °C 11.9 °C 989.1 hPa SW 27.4 km/h 41.8 km/h 92% 0.3 mm 0.00 W/m2
04:35 13.2 °C 11.9 °C 989.1 hPa WSW 30.6 km/h 48.3 km/h 92% 0.5 mm 0.00 W/m2
04:40 13.2 °C 11.9 °C 989.1 hPa SW 20.9 km/h 53.1 km/h 92% 0.5 mm 0.00 W/m2
04:45 13.2 °C 11.9 °C 988.7 hPa WSW 16.3 km/h 35.4 km/h 92% 0.5 mm 0.00 W/m2
04:50 13.2 °C 11.9 °C 989.1 hPa SW 32.0 km/h 46.7 km/h 92% 0.8 mm 0.00 W/m2
04:55 13.1 °C 11.8 °C 988.7 hPa SSW 14.3 km/h 37.0 km/h 92% 1.0 mm 0.00 W/m2
05:00 13.1 °C 12.0 °C 989.4 hPa West 24.1 km/h 43.4 km/h 93% 1.0 mm 0.00 W/m2
05:05 11.8 °C 10.0 °C 989.7 hPa NW 28.8 km/h 35.4 km/h 89% 1.5 mm 0.00 W/m2
05:10 10.9 °C 9.5 °C 989.7 hPa NNW 19.5 km/h 33.8 km/h 91% 2.3 mm 0.00 W/m2
05:15 10.3 °C 9.1 °C 990.1 hPa WNW 25.9 km/h 29.0 km/h 92% 2.8 mm 0.00 W/m2
05:20 10.0 °C 8.9 °C 990.4 hPa NW 20.9 km/h 30.6 km/h 93% 3.3 mm 0.00 W/m2
05:25 9.8 °C 8.7 °C 990.4 hPa Calm   24.1 km/h 93% 3.3 mm 0.00 W/m2
05:30 9.7 °C 8.6 °C 990.4 hPa WNW 25.9 km/h 30.6 km/h 93% 3.3 mm 0.00 W/m2
05:35 9.6 °C 8.5 °C 990.7 hPa NW 9.7 km/h 27.4 km/h 93% 3.3 mm 0.00 W/m2
05:40 9.5 °C 8.4 °C 990.7 hPa WNW 25.9 km/h 43.4 km/h 93% 3.3 mm 0.00 W/m2
05:45 9.5 °C 8.4 °C 990.7 hPa WNW 17.7 km/h 30.6 km/h 93% 3.3 mm 0.00 W/m2
05:50 9.4 °C 8.5 °C 991.1 hPa NW 14.3 km/h 27.4 km/h 94% 3.0 mm 0.00 W/m2
05:55 9.5 °C 8.6 °C 991.1 hPa WNW 20.9 km/h 29.0 km/h 94% 2.8 mm 0.00 W/m2
06:00 9.4 °C 8.5 °C 991.4 hPa WNW 22.7 km/h 35.4 km/h 94% 3.0 mm 0.00 W/m2
06:05 9.4 °C 8.5 °C 991.4 hPa NW 20.9 km/h 40.2 km/h 94% 2.5 mm 0.00 W/m2
06:10 9.3 °C 8.4 °C 991.8 hPa NNW 19.5 km/h 33.8 km/h 94% 2.0 mm 0.00 W/m2
06:15 9.2 °C 8.3 °C 991.8 hPa NW 25.9 km/h 37.0 km/h 94% 1.5 mm 0.00 W/m2
06:20 9.1 °C 8.2 °C 992.1 hPa NNW 27.4 km/h 43.4 km/h 94% 1.0 mm 0.00 W/m2
06:25 9.1 °C 8.2 °C 992.1 hPa WSW 14.3 km/h 35.4 km/h 94% 0.8 mm 0.00 W/m2
06:30 8.9 °C 8.0 °C 992.4 hPa NNW 32.0 km/h 43.4 km/h 94% 0.8 mm 0.00 W/m2
06:35 8.9 °C 8.0 °C 992.4 hPa WNW 19.5 km/h 20.9 km/h 94% 0.8 mm 0.00 W/m2
06:40 8.8 °C 7.9 °C 992.1 hPa West 19.5 km/h 27.4 km/h 94% 0.5 mm 0.00 W/m2
06:45 8.7 °C 7.8 °C 992.4 hPa WNW 14.3 km/h 30.6 km/h 94% 0.8 mm 0.00 W/m2
06:50 8.7 °C 7.8 °C 992.1 hPa NNW 13.0 km/h 14.5 km/h 94% 0.8 mm 0.00 W/m2
06:55 8.7 °C 7.8 °C 992.1 hPa WNW 9.7 km/h 14.5 km/h 94% 0.8 mm 0.00 W/m2
07:05 8.6 °C 7.7 °C 992.1 hPa West 3.2 km/h 4.8 km/h 94% 0.0 mm 0.00 W/m2
07:10 8.7 °C 7.8 °C 992.1 hPa Calm   8.0 km/h 94% 0.0 mm 0.00 W/m2
07:15 8.7 °C 7.8 °C 991.8 hPa Calm   6.4 km/h 94% 0.0 mm 0.00 W/m2
07:20 8.7 °C 7.8 °C 991.8 hPa WSW 1.4 km/h 4.8 km/h 94% 0.0 mm 0.00 W/m2
07:25 8.8 °C 8.0 °C 991.8 hPa SW 4.7 km/h 9.7 km/h 95% 0.0 mm 0.00 W/m2
07:30 8.8 °C 8.0 °C 992.1 hPa Calm   4.8 km/h 95% 0.3 mm 0.00 W/m2
07:35 8.9 °C 8.1 °C 992.4 hPa Calm   6.4 km/h 95% 0.3 mm 0.00 W/m2
07:40 8.9 °C 8.1 °C 992.8 hPa Calm   4.8 km/h 95% 0.3 mm 0.00 W/m2
07:45 9.0 °C 8.2 °C 992.8 hPa WSW 1.4 km/h 6.4 km/h 95% 0.3 mm 0.00 W/m2
07:50 9.0 °C 8.2 °C 992.4 hPa SW 4.7 km/h 11.3 km/h 95% 0.3 mm 0.00 W/m2
07:55 9.0 °C 8.2 °C 992.4 hPa SW 13.0 km/h 16.1 km/h 95% 0.3 mm 5.00 W/m2
08:00 9.1 °C 8.3 °C 992.8 hPa West 20.9 km/h 24.1 km/h 95% 0.3 mm 5.00 W/m2
08:05 9.1 °C 8.3 °C 992.8 hPa SW 4.7 km/h 14.5 km/h 95% 0.3 mm 7.00 W/m2
08:10 9.2 °C 8.3 °C 992.8 hPa WSW 17.7 km/h 22.5 km/h 94% 0.3 mm 9.00 W/m2
08:15 9.3 °C 8.4 °C 992.8 hPa SW 3.2 km/h 16.1 km/h 94% 0.3 mm 12.00 W/m2
08:20 9.3 °C 8.4 °C 992.8 hPa SSW 7.9 km/h 16.1 km/h 94% 0.3 mm 14.00 W/m2
08:25 9.4 °C 8.5 °C 992.4 hPa WSW 1.4 km/h 19.3 km/h 94% 0.3 mm 14.00 W/m2
08:30 9.6 °C 8.5 °C 992.4 hPa SW 24.1 km/h 30.6 km/h 93% 0.0 mm 14.00 W/m2
08:35 9.7 °C 8.6 °C 992.4 hPa SW 11.1 km/h 22.5 km/h 93% 0.0 mm 16.00 W/m2
08:40 9.7 °C 8.5 °C 992.8 hPa West 19.5 km/h 33.8 km/h 92% 0.0 mm 16.00 W/m2
08:45 9.7 °C 8.5 °C 992.8 hPa WSW 17.7 km/h 25.7 km/h 92% 0.0 mm 18.00 W/m2
08:50 9.7 °C 8.3 °C 993.1 hPa West 6.4 km/h 27.4 km/h 91% 0.0 mm 12.00 W/m2
08:55 9.7 °C 8.3 °C 993.1 hPa West 1.4 km/h 24.1 km/h 91% 0.3 mm 14.00 W/m2
09:00 9.7 °C 8.3 °C 993.1 hPa SSW 1.4 km/h 16.1 km/h 91% 0.3 mm 19.00 W/m2
09:05 9.7 °C 8.3 °C 993.1 hPa West 17.7 km/h 22.5 km/h 91% 0.3 mm 23.00 W/m2
09:10 9.6 °C 8.2 °C 993.1 hPa NNW 7.9 km/h 22.5 km/h 91% 0.3 mm 21.00 W/m2
09:15 9.7 °C 8.3 °C 993.1 hPa WNW 27.4 km/h 29.0 km/h 91% 0.5 mm 26.00 W/m2
09:20 9.7 °C 8.3 °C 993.1 hPa WSW 9.7 km/h 25.7 km/h 91% 0.5 mm 25.00 W/m2
09:25 9.7 °C 8.3 °C 993.5 hPa WNW 13.0 km/h 25.7 km/h 91% 0.5 mm 21.00 W/m2
09:30 9.7 °C 8.1 °C 993.5 hPa SW 11.1 km/h 25.7 km/h 90% 0.5 mm 30.00 W/m2
09:35 9.6 °C 7.9 °C 993.5 hPa WNW 19.5 km/h 43.4 km/h 89% 0.5 mm 32.00 W/m2
09:40 9.6 °C 7.5 °C 993.1 hPa West 17.7 km/h 38.6 km/h 87% 0.5 mm 23.00 W/m2
09:45 9.3 °C 7.2 °C 993.1 hPa NW 22.7 km/h 27.4 km/h 87% 0.8 mm 16.00 W/m2
09:50 9.1 °C 7.2 °C 993.5 hPa NW 20.9 km/h 29.0 km/h 88% 1.0 mm 12.00 W/m2
09:55 9.0 °C 7.3 °C 993.5 hPa NNW 30.6 km/h 38.6 km/h 89% 1.0 mm 26.00 W/m2
10:00 8.9 °C 7.2 °C 993.1 hPa WNW 19.5 km/h 22.5 km/h 89% 1.3 mm 25.00 W/m2
10:05 8.8 °C 7.1 °C 993.1 hPa WNW 19.5 km/h 22.5 km/h 89% 1.3 mm 30.00 W/m2
10:10 8.6 °C 6.7 °C 993.1 hPa WNW 17.7 km/h 27.4 km/h 88% 1.3 mm 30.00 W/m2
10:15 8.6 °C 6.7 °C 993.1 hPa WNW 9.7 km/h 24.1 km/h 88% 1.0 mm 23.00 W/m2
10:20 8.6 °C 6.9 °C 993.1 hPa WSW 6.4 km/h 14.5 km/h 89% 1.3 mm 35.00 W/m2
10:25 8.6 °C 7.1 °C 993.1 hPa WSW 3.2 km/h 14.5 km/h 90% 1.3 mm 35.00 W/m2
10:30 8.7 °C 7.2 °C 993.1 hPa WNW 9.7 km/h 17.7 km/h 90% 1.3 mm 33.00 W/m2
10:35 8.8 °C 7.4 °C 993.1 hPa WSW 24.1 km/h 24.1 km/h 91% 1.3 mm 25.00 W/m2
10:40 9.0 °C 7.4 °C 992.8 hPa West 6.4 km/h 20.9 km/h 90% 1.3 mm 28.00 W/m2
10:45 9.1 °C 7.5 °C 992.8 hPa WSW 17.7 km/h 20.9 km/h 90% 1.0 mm 26.00 W/m2
10:50 9.1 °C 7.5 °C 992.8 hPa NNW 9.7 km/h 24.1 km/h 90% 0.8 mm 30.00 W/m2
10:55 9.1 °C 7.5 °C 992.8 hPa WSW 14.3 km/h 20.9 km/h 90% 0.5 mm 30.00 W/m2
11:00 9.1 °C 7.5 °C 992.8 hPa SW 16.3 km/h 30.6 km/h 90% 0.5 mm 32.00 W/m2
11:05 9.0 °C 7.3 °C 993.1 hPa West 19.5 km/h 24.1 km/h 89% 0.5 mm 25.00 W/m2
11:10 8.9 °C 7.2 °C 993.1 hPa WNW 16.3 km/h 29.0 km/h 89% 0.5 mm 25.00 W/m2
11:15 8.8 °C 7.1 °C 993.1 hPa WSW 11.1 km/h 25.7 km/h 89% 0.8 mm 26.00 W/m2
11:20 8.7 °C 7.0 °C 993.8 hPa West 13.0 km/h 17.7 km/h 89% 0.5 mm 19.00 W/m2
11:25 8.6 °C 6.9 °C 993.5 hPa West 19.5 km/h 19.3 km/h 89% 0.5 mm 23.00 W/m2
11:30 8.5 °C 7.0 °C 993.5 hPa NW 6.4 km/h 16.1 km/h 90% 0.5 mm 23.00 W/m2
11:35 8.4 °C 6.9 °C 993.1 hPa West 9.7 km/h 19.3 km/h 90% 0.8 mm 25.00 W/m2
11:40 8.3 °C 6.8 °C 993.1 hPa NW 16.3 km/h 22.5 km/h 90% 1.0 mm 39.00 W/m2
11:45 8.3 °C 6.9 °C 992.8 hPa West 7.9 km/h 12.9 km/h 91% 1.3 mm 63.00 W/m2
11:50 8.2 °C 6.8 °C 993.1 hPa West 7.9 km/h 24.1 km/h 91% 1.3 mm 65.00 W/m2
11:55 8.2 °C 6.8 °C 993.5 hPa West 16.3 km/h 16.1 km/h 91% 1.5 mm 32.00 W/m2
12:00 8.1 °C 6.7 °C 993.5 hPa West 13.0 km/h 17.7 km/h 91% 1.5 mm 44.00 W/m2
12:05 8.0 °C 6.6 °C 993.8 hPa NW 16.3 km/h 25.7 km/h 91% 1.5 mm 51.00 W/m2
12:10 7.8 °C 6.3 °C 994.1 hPa WNW 14.3 km/h 24.1 km/h 90% 1.5 mm 33.00 W/m2
12:15 7.8 °C 6.4 °C 994.1 hPa West 7.9 km/h 16.1 km/h 91% 1.5 mm 23.00 W/m2
12:20 7.7 °C 6.3 °C 993.8 hPa West 4.7 km/h 17.7 km/h 91% 1.5 mm 21.00 W/m2
12:25 7.7 °C 6.3 °C 993.8 hPa WNW 20.9 km/h 30.6 km/h 91% 1.5 mm 37.00 W/m2
12:30 7.6 °C 6.2 °C 994.1 hPa NW 16.3 km/h 40.2 km/h 91% 1.5 mm 40.00 W/m2
12:35 7.4 °C 5.9 °C 994.1 hPa WSW 14.3 km/h 41.8 km/h 90% 1.5 mm 39.00 W/m2
12:40 7.4 °C 5.9 °C 994.1 hPa SW 6.4 km/h 25.7 km/h 90% 1.5 mm 40.00 W/m2
12:45 7.4 °C 6.0 °C 994.1 hPa SW 11.1 km/h 17.7 km/h 91% 1.3 mm 42.00 W/m2
12:50 7.4 °C 6.0 °C 994.1 hPa West 4.7 km/h 20.9 km/h 91% 1.5 mm 49.00 W/m2
12:55 7.3 °C 5.9 °C 994.1 hPa West 11.1 km/h 14.5 km/h 91% 1.3 mm 47.00 W/m2
13:00 7.3 °C 5.9 °C 994.1 hPa West 20.9 km/h 25.7 km/h 91% 1.3 mm 47.00 W/m2
13:05 7.3 °C 5.9 °C 994.1 hPa West 13.0 km/h 20.9 km/h 91% 1.3 mm 40.00 W/m2
13:10 7.3 °C 5.9 °C 994.1 hPa West 6.4 km/h 17.7 km/h 91% 1.0 mm 37.00 W/m2
13:15 7.2 °C 5.8 °C 994.5 hPa WSW 11.1 km/h 19.3 km/h 91% 1.0 mm 33.00 W/m2
13:20 7.3 °C 6.1 °C 994.5 hPa West 6.4 km/h 24.1 km/h 92% 1.0 mm 33.00 W/m2
13:25 7.2 °C 6.0 °C 994.5 hPa West 3.2 km/h 27.4 km/h 92% 1.0 mm 35.00 W/m2
13:30 7.3 °C 6.1 °C 994.5 hPa NNW 14.3 km/h 25.7 km/h 92% 1.0 mm 33.00 W/m2
13:35 7.3 °C 6.1 °C 994.5 hPa WNW 16.3 km/h 17.7 km/h 92% 0.8 mm 42.00 W/m2
13:40 7.2 °C 6.0 °C 994.5 hPa WSW 20.9 km/h 20.9 km/h 92% 1.0 mm 39.00 W/m2
13:45 7.3 °C 6.1 °C 994.5 hPa WSW 17.7 km/h 25.7 km/h 92% 1.0 mm 42.00 W/m2
13:50 7.2 °C 6.0 °C 994.5 hPa West 7.9 km/h 29.0 km/h 92% 0.8 mm 28.00 W/m2
13:55 7.1 °C 5.7 °C 994.5 hPa WSW 9.7 km/h 33.8 km/h 91% 1.0 mm 42.00 W/m2
14:00 7.1 °C 5.7 °C 994.1 hPa NNW 24.1 km/h 32.2 km/h 91% 0.8 mm 60.00 W/m2
14:05 7.1 °C 5.6 °C 994.1 hPa West 13.0 km/h 17.7 km/h 90% 0.8 mm 90.00 W/m2
14:10 7.1 °C 5.6 °C 994.1 hPa NW 14.3 km/h 33.8 km/h 90% 0.8 mm 67.00 W/m2
14:15 7.2 °C 5.5 °C 994.1 hPa WSW 22.7 km/h 27.4 km/h 89% 0.5 mm 60.00 W/m2
14:20 7.2 °C 5.3 °C 994.1 hPa WNW 17.7 km/h 33.8 km/h 88% 0.5 mm 79.00 W/m2
14:25 7.3 °C 5.4 °C 994.1 hPa WSW 6.4 km/h 32.2 km/h 88% 0.5 mm 97.00 W/m2
14:30 7.3 °C 5.3 °C 994.8 hPa NW 22.7 km/h 29.0 km/h 87% 0.5 mm 88.00 W/m2
14:35 7.3 °C 5.3 °C 994.8 hPa West 6.4 km/h 22.5 km/h 87% 0.5 mm 111.00 W/m2
14:40 7.3 °C 5.3 °C 995.1 hPa West 19.5 km/h 32.2 km/h 87% 0.3 mm 79.00 W/m2
14:45 7.3 °C 5.3 °C 995.1 hPa WNW 14.3 km/h 19.3 km/h 87% 0.3 mm 67.00 W/m2
14:50 7.3 °C 5.3 °C 995.1 hPa NW 9.7 km/h 22.5 km/h 87% 0.3 mm 118.00 W/m2
14:55 7.4 °C 5.4 °C 995.1 hPa West 24.1 km/h 29.0 km/h 87% 0.0 mm 86.00 W/m2
15:00 7.4 °C 5.4 °C 995.1 hPa WSW 19.5 km/h 27.4 km/h 87% 0.0 mm 72.00 W/m2
15:05 7.4 °C 5.4 °C 995.5 hPa West 17.7 km/h 25.7 km/h 87% 0.0 mm 32.00 W/m2
15:10 7.5 °C 5.5 °C 995.5 hPa WSW 19.5 km/h 25.7 km/h 87% 0.0 mm 53.00 W/m2
15:15 7.6 °C 5.6 °C 995.8 hPa West 7.9 km/h 25.7 km/h 87% 0.0 mm 105.00 W/m2
15:20 7.7 °C 5.7 °C 995.8 hPa WSW 6.4 km/h 29.0 km/h 87% 0.0 mm 113.00 W/m2
15:25 7.8 °C 5.8 °C 995.5 hPa WSW 13.0 km/h 20.9 km/h 87% 0.0 mm 120.00 W/m2
15:30 7.8 °C 5.6 °C 995.8 hPa West 9.7 km/h 22.5 km/h 86% 0.0 mm 104.00 W/m2
15:35 7.9 °C 5.7 °C 995.8 hPa WSW 19.5 km/h 20.9 km/h 86% 0.0 mm 104.00 W/m2
15:40 7.9 °C 5.5 °C 995.8 hPa West 7.9 km/h 33.8 km/h 85% 0.0 mm 86.00 W/m2
15:45 8.0 °C 5.8 °C 995.5 hPa WNW 13.0 km/h 27.4 km/h 86% 0.0 mm 81.00 W/m2
15:50 8.1 °C 5.9 °C 995.8 hPa WSW 6.4 km/h 17.7 km/h 86% 0.0 mm 81.00 W/m2
15:55 8.1 °C 5.9 °C 995.8 hPa West 4.7 km/h 14.5 km/h 86% 0.0 mm 77.00 W/m2
16:00 8.1 °C 5.9 °C 995.8 hPa WSW 7.9 km/h 16.1 km/h 86% 0.0 mm 69.00 W/m2
16:05 8.2 °C 6.0 °C 996.2 hPa SW 4.7 km/h 12.9 km/h 86% 0.0 mm 77.00 W/m2
16:10 8.2 °C 6.0 °C 995.8 hPa WSW 16.3 km/h 16.1 km/h 86% 0.0 mm 62.00 W/m2
16:15 8.2 °C 5.8 °C 995.8 hPa West 32.0 km/h 32.2 km/h 85% 0.0 mm 65.00 W/m2
16:20 8.3 °C 5.8 °C 995.8 hPa WNW 13.0 km/h 16.1 km/h 84% 0.0 mm 84.00 W/m2
16:25 8.4 °C 5.9 °C 996.2 hPa SW 9.7 km/h 27.4 km/h 84% 0.0 mm 67.00 W/m2
16:30 8.4 °C 5.7 °C 996.2 hPa NW 17.7 km/h 27.4 km/h 83% 0.0 mm 51.00 W/m2
16:35 8.6 °C 5.7 °C 996.2 hPa West 17.7 km/h 30.6 km/h 82% 0.0 mm 40.00 W/m2
16:40 8.5 °C 5.4 °C 996.2 hPa WNW 7.9 km/h 25.7 km/h 81% 0.0 mm 35.00 W/m2
16:45 8.5 °C 5.2 °C 996.2 hPa West 19.5 km/h 29.0 km/h 80% 0.0 mm 32.00 W/m2
16:50 8.4 °C 5.2 °C 996.2 hPa WSW 17.7 km/h 20.9 km/h 80% 0.0 mm 26.00 W/m2
16:55 8.4 °C 5.2 °C 996.2 hPa SSW 17.7 km/h 19.3 km/h 80% 0.0 mm 21.00 W/m2
17:00 8.4 °C 5.2 °C 996.5 hPa WNW 14.3 km/h 25.7 km/h 80% 0.0 mm 18.00 W/m2
17:05 8.4 °C 5.0 °C 996.5 hPa WNW 16.3 km/h 25.7 km/h 79% 0.0 mm 14.00 W/m2
17:10 8.3 °C 4.9 °C 996.8 hPa West 13.0 km/h 30.6 km/h 79% 0.0 mm 11.00 W/m2
17:15 8.2 °C 4.6 °C 996.8 hPa WNW 17.7 km/h 24.1 km/h 78% 0.0 mm 7.00 W/m2
17:20 8.1 °C 4.5 °C 996.8 hPa West 25.9 km/h 27.4 km/h 78% 0.0 mm 5.00 W/m2
17:25 8.1 °C 4.5 °C 996.8 hPa WSW 20.9 km/h 33.8 km/h 78% 0.0 mm 0.00 W/m2
17:30 8.1 °C 4.3 °C 997.2 hPa SW 9.7 km/h 37.0 km/h 77% 0.0 mm 0.00 W/m2
17:35 7.9 °C 4.1 °C 997.2 hPa WNW 16.3 km/h 27.4 km/h 77% 0.0 mm 0.00 W/m2
17:40 7.9 °C 4.1 °C 997.5 hPa WSW 4.7 km/h 22.5 km/h 77% 0.0 mm 0.00 W/m2
17:45 7.8 °C 4.2 °C 997.5 hPa SW 9.7 km/h 14.5 km/h 78% 0.0 mm 0.00 W/m2
17:50 7.8 °C 4.2 °C 997.5 hPa WSW 4.7 km/h 20.9 km/h 78% 0.0 mm 0.00 W/m2
17:55 7.7 °C 4.3 °C 997.9 hPa West 17.7 km/h 22.5 km/h 79% 0.0 mm 0.00 W/m2
18:00 7.6 °C 4.2 °C 997.9 hPa WSW 16.3 km/h 22.5 km/h 79% 0.0 mm 0.00 W/m2
18:05 7.6 °C 4.4 °C 997.9 hPa West 6.4 km/h 17.7 km/h 80% 0.0 mm 0.00 W/m2
18:10 7.5 °C 4.3 °C 998.2 hPa SW 16.3 km/h 22.5 km/h 80% 0.0 mm 0.00 W/m2
18:15 7.4 °C 4.2 °C 997.9 hPa West 4.7 km/h 24.1 km/h 80% 0.0 mm 0.00 W/m2
18:20 7.4 °C 4.2 °C 998.2 hPa West 16.3 km/h 35.4 km/h 80% 0.0 mm 0.00 W/m2
18:25 7.4 °C 4.2 °C 998.5 hPa SW 9.7 km/h 16.1 km/h 80% 0.0 mm 0.00 W/m2
18:30 7.4 °C 4.2 °C 998.9 hPa WNW 14.3 km/h 27.4 km/h 80% 0.0 mm 0.00 W/m2
18:35 7.6 °C 4.4 °C 999.2 hPa WSW 20.9 km/h 30.6 km/h 80% 0.0 mm 0.00 W/m2
18:40 7.6 °C 4.2 °C 999.2 hPa SW 11.1 km/h 22.5 km/h 79% 0.0 mm 0.00 W/m2
18:45 7.7 °C 4.3 °C 998.9 hPa NW 13.0 km/h 24.1 km/h 79% 0.0 mm 0.00 W/m2
18:50 7.6 °C 4.2 °C 999.2 hPa SW 22.7 km/h 33.8 km/h 79% 0.0 mm 0.00 W/m2
18:55 7.6 °C 3.8 °C 998.9 hPa WNW 27.4 km/h 27.4 km/h 77% 0.0 mm 0.00 W/m2
19:00 7.7 °C 3.9 °C 999.2 hPa West 20.9 km/h 24.1 km/h 77% 0.0 mm 0.00 W/m2
19:05 7.3 °C 3.5 °C 1000.6 hPa WNW 38.5 km/h 66.0 km/h 77% 0.3 mm 0.00 W/m2
19:10 6.5 °C 3.5 °C 1000.6 hPa NW 27.4 km/h 48.3 km/h 81% 0.5 mm 0.00 W/m2
19:15 5.9 °C 3.4 °C 1000.2 hPa WSW 17.7 km/h 41.8 km/h 84% 0.5 mm 0.00 W/m2
19:20 5.8 °C 3.5 °C 1000.2 hPa WSW 11.1 km/h 45.1 km/h 85% 0.5 mm 0.00 W/m2
19:25 5.7 °C 3.2 °C 1000.2 hPa North 19.5 km/h 29.0 km/h 84% 0.5 mm 0.00 W/m2
19:30 5.7 °C 3.0 °C 1000.6 hPa West 33.8 km/h 33.8 km/h 83% 0.5 mm 0.00 W/m2
19:35 5.7 °C 2.7 °C 1000.6 hPa West 17.7 km/h 41.8 km/h 81% 0.5 mm 0.00 W/m2
19:40 5.8 °C 2.6 °C 1000.6 hPa NW 13.0 km/h 27.4 km/h 80% 0.5 mm 0.00 W/m2
19:45 5.8 °C 2.8 °C 1000.9 hPa SW 20.9 km/h 20.9 km/h 81% 0.5 mm 0.00 W/m2
19:50 5.9 °C 2.9 °C 1001.2 hPa WNW 25.9 km/h 29.0 km/h 81% 0.5 mm 0.00 W/m2
19:55 5.9 °C 2.9 °C 1001.2 hPa West 38.5 km/h 43.4 km/h 81% 0.5 mm 0.00 W/m2
20:00 5.7 °C 2.9 °C 1001.2 hPa WSW 13.0 km/h 35.4 km/h 82% 0.5 mm 0.00 W/m2
20:05 5.3 °C 2.8 °C 1001.2 hPa West 14.3 km/h 25.7 km/h 84% 0.5 mm 0.00 W/m2
20:10 5.1 °C 2.8 °C 1001.2 hPa WSW 7.9 km/h 29.0 km/h 85% 0.3 mm 0.00 W/m2
20:15 4.9 °C 2.8 °C 1001.2 hPa West 3.2 km/h 17.7 km/h 86% 0.3 mm 0.00 W/m2
20:20 5.0 °C 2.9 °C 1001.2 hPa NW 16.3 km/h 19.3 km/h 86% 0.3 mm 0.00 W/m2
20:25 5.1 °C 2.8 °C 1001.6 hPa WNW 9.7 km/h 32.2 km/h 85% 0.3 mm 0.00 W/m2
20:30 5.2 °C 2.9 °C 1001.6 hPa West 4.7 km/h 29.0 km/h 85% 0.3 mm 0.00 W/m2
20:35 5.3 °C 2.8 °C 1001.6 hPa WSW 1.4 km/h 27.4 km/h 84% 0.3 mm 0.00 W/m2
20:40 5.3 °C 2.8 °C 1001.6 hPa WSW 14.3 km/h 24.1 km/h 84% 0.3 mm 0.00 W/m2
20:45 5.4 °C 2.9 °C 1001.6 hPa NNW 16.3 km/h 30.6 km/h 84% 0.3 mm 0.00 W/m2
20:50 5.4 °C 2.9 °C 1001.9 hPa West 13.0 km/h 22.5 km/h 84% 0.3 mm 0.00 W/m2
20:55 5.3 °C 2.8 °C 1001.9 hPa West 14.3 km/h 32.2 km/h 84% 0.3 mm 0.00 W/m2
21:00 5.4 °C 2.9 °C 1001.9 hPa SSW 16.3 km/h 22.5 km/h 84% 0.3 mm 0.00 W/m2
21:05 5.6 °C 3.1 °C 1002.6 hPa NW 24.1 km/h 30.6 km/h 84% 0.0 mm 0.00 W/m2
21:10 5.5 °C 2.8 °C 1003.3 hPa NNW 24.1 km/h 62.8 km/h 83% 0.3 mm 0.00 W/m2
21:15 5.0 °C 2.7 °C 1003.9 hPa WNW 32.0 km/h 59.5 km/h 85% 0.5 mm 0.00 W/m2
21:20 4.5 °C 2.5 °C 1003.3 hPa NW 13.0 km/h 49.9 km/h 87% 0.8 mm 0.00 W/m2
21:25 4.4 °C 2.6 °C 1002.9 hPa WNW 9.7 km/h 35.4 km/h 88% 0.8 mm 0.00 W/m2
21:30 4.4 °C 2.7 °C 1002.9 hPa WNW 4.7 km/h 16.1 km/h 89% 0.8 mm 0.00 W/m2
21:35 4.4 °C 2.7 °C 1002.9 hPa West 11.1 km/h 35.4 km/h 89% 0.8 mm 0.00 W/m2
21:40 4.6 °C 2.9 °C 1002.9 hPa West 17.7 km/h 30.6 km/h 89% 0.8 mm 0.00 W/m2
21:45 4.7 °C 2.9 °C 1002.9 hPa West 19.5 km/h 20.9 km/h 88% 0.8 mm 0.00 W/m2
21:50 4.7 °C 2.9 °C 1003.3 hPa SSW 7.9 km/h 24.1 km/h 88% 0.8 mm 0.00 W/m2
21:55 4.7 °C 2.7 °C 1003.3 hPa SW 9.7 km/h 19.3 km/h 87% 0.8 mm 0.00 W/m2
22:00 4.7 °C 2.6 °C 1003.3 hPa SW 13.0 km/h 24.1 km/h 86% 0.8 mm 0.00 W/m2
22:05 4.7 °C 2.4 °C 1003.3 hPa West 19.5 km/h 29.0 km/h 85% 0.8 mm 0.00 W/m2
22:10 4.8 °C 2.5 °C 1003.6 hPa West 7.9 km/h 22.5 km/h 85% 0.5 mm 0.00 W/m2
22:15 4.8 °C 2.3 °C 1003.6 hPa WSW 13.0 km/h 16.1 km/h 84% 0.3 mm 0.00 W/m2
22:20 4.8 °C 2.3 °C 1003.9 hPa WSW 6.4 km/h 20.9 km/h 84% 0.0 mm 0.00 W/m2
22:25 4.8 °C 2.3 °C 1003.9 hPa SW 11.1 km/h 19.3 km/h 84% 0.0 mm 0.00 W/m2
22:30 4.9 °C 2.4 °C 1003.9 hPa NW 6.4 km/h 22.5 km/h 84% 0.0 mm 0.00 W/m2
22:35 5.0 °C 2.4 °C 1003.9 hPa WSW 6.4 km/h 17.7 km/h 83% 0.0 mm 0.00 W/m2
22:40 4.9 °C 2.3 °C 1003.9 hPa SW 4.7 km/h 14.5 km/h 83% 0.0 mm 0.00 W/m2
22:45 5.0 °C 2.4 °C 1004.3 hPa Calm   9.7 km/h 83% 0.0 mm 0.00 W/m2
22:50 5.1 °C 2.6 °C 1004.3 hPa WSW 4.7 km/h 17.7 km/h 84% 0.0 mm 0.00 W/m2
22:55 5.2 °C 2.7 °C 1004.3 hPa WSW 4.7 km/h 17.7 km/h 84% 0.0 mm 0.00 W/m2
23:00 5.1 °C 2.5 °C 1004.6 hPa WNW 14.3 km/h 16.1 km/h 83% 0.0 mm 0.00 W/m2
23:05 5.1 °C 2.5 °C 1004.6 hPa NW 16.3 km/h 17.7 km/h 83% 0.0 mm 0.00 W/m2
23:10 5.1 °C 2.6 °C 1004.6 hPa WSW 6.4 km/h 20.9 km/h 84% 0.0 mm 0.00 W/m2
23:15 5.1 °C 2.6 °C 1004.6 hPa WSW 11.1 km/h 25.7 km/h 84% 0.0 mm 0.00 W/m2
23:20 5.2 °C 2.7 °C 1004.6 hPa West 24.1 km/h 25.7 km/h 84% 0.0 mm 0.00 W/m2
23:25 5.2 °C 2.7 °C 1005.0 hPa West 14.3 km/h 24.1 km/h 84% 0.0 mm 0.00 W/m2
23:30 5.2 °C 2.7 °C 1005.0 hPa WSW 16.3 km/h 19.3 km/h 84% 0.0 mm 0.00 W/m2
23:35 5.3 °C 2.8 °C 1005.0 hPa WSW 16.3 km/h 25.7 km/h 84% 0.0 mm 0.00 W/m2
23:40 5.3 °C 2.6 °C 1005.0 hPa SW 20.9 km/h 25.7 km/h 83% 0.0 mm 0.00 W/m2
23:45 5.3 °C 2.5 °C 1005.0 hPa WSW 6.4 km/h 17.7 km/h 82% 0.0 mm 0.00 W/m2
23:50 5.4 °C 2.6 °C 1005.3 hPa WSW 16.3 km/h 16.1 km/h 82% 0.0 mm 0.00 W/m2
23:55 5.4 °C 2.6 °C 1005.0 hPa WSW 3.2 km/h 14.5 km/h 82% 0.0 mm 0.00 W/m2